Time;durP1;ratioP1;P1;durP2;ratioP2;P2;SDS_P1;SDS_P2;PMS_P1;PMS_P2;Temp;Humidity;BMP_temperature;BMP_pressure;BME280_temperature;BME280_humidity;BME280_pressure;Samples;Min_cycle;Max_cycle;Signal;HPM_P1;HPM_P2
2022/12/12 00:00:34;;;;;;;32.75;17.98;;;1.20;99.90;;;;;;5074380;28;20075;-63
2022/12/12 00:02:59;;;;;;;32.22;16.77;;;1.20;99.90;;;;;;5077905;28;20051;-63
2022/12/12 00:05:25;;;;;;;30.60;16.17;;;1.20;99.90;;;;;;5055834;28;20049;-63
2022/12/12 00:07:51;;;;;;;29.85;16.48;;;1.20;99.90;;;;;;5076687;28;20043;-63
2022/12/12 00:10:16;;;;;;;27.55;15.52;;;1.10;99.90;;;;;;5056146;28;20049;-63
2022/12/12 00:12:42;;;;;;;31.13;16.35;;;1.20;99.90;;;;;;5061232;28;20115;-63
2022/12/12 00:15:08;;;;;;;32.78;17.42;;;1.20;99.90;;;;;;5074444;28;20052;-63
2022/12/12 00:17:34;;;;;;;27.92;16.08;;;1.20;99.90;;;;;;5058359;28;20044;-63
2022/12/12 00:20:00;;;;;;;30.05;16.80;;;1.20;99.90;;;;;;5055044;28;20401;-63
2022/12/12 00:22:26;;;;;;;31.48;16.42;;;1.20;99.90;;;;;;5074305;28;20040;-63
2022/12/12 00:24:51;;;;;;;32.97;16.77;;;1.20;99.90;;;;;;5074143;28;20084;-63
2022/12/12 00:27:17;;;;;;;32.13;17.00;;;1.30;99.90;;;;;;5074750;28;20033;-63
2022/12/12 00:29:43;;;;;;;33.40;17.67;;;1.20;99.90;;;;;;5063950;28;20041;-63
2022/12/12 00:32:08;;;;;;;31.40;16.75;;;1.20;99.90;;;;;;5055564;28;20056;-63
2022/12/12 00:34:34;;;;;;;32.65;17.13;;;1.20;99.90;;;;;;5070828;28;20091;-63
2022/12/12 00:37:00;;;;;;;31.23;17.15;;;1.10;99.90;;;;;;5053264;28;20056;-63
2022/12/12 00:39:25;;;;;;;30.15;16.13;;;1.20;99.90;;;;;;5055211;28;20386;-63
2022/12/12 00:41:53;;;;;;;35.35;17.15;;;1.10;99.90;;;;;;5070385;28;20123;-63
2022/12/12 00:44:19;;;;;;;32.60;17.33;;;1.20;99.90;;;;;;5052025;28;20059;-63
2022/12/12 00:46:45;;;;;;;32.05;17.30;;;1.20;99.90;;;;;;5075877;28;20040;-63
2022/12/12 00:49:11;;;;;;;31.85;17.13;;;1.20;99.90;;;;;;5067538;28;20064;-63
2022/12/12 00:51:37;;;;;;;34.05;18.30;;;1.30;99.90;;;;;;5075769;28;20071;-63
2022/12/12 00:54:03;;;;;;;31.67;17.48;;;1.20;99.90;;;;;;5069535;28;20037;-63
2022/12/12 00:56:29;;;;;;;33.20;17.73;;;1.30;99.90;;;;;;5073225;28;20099;-63
2022/12/12 00:58:55;;;;;;;36.08;18.50;;;1.20;99.90;;;;;;5052830;28;20072;-63
2022/12/12 01:01:25;;;;;;;32.20;17.58;;;1.20;99.90;;;;;;5081904;28;20040;-63
2022/12/12 01:03:52;;;;;;;32.47;17.27;;;1.20;99.90;;;;;;5059848;28;20094;-63
2022/12/12 01:06:18;;;;;;;31.67;16.30;;;1.30;99.90;;;;;;5081915;28;20056;-63
2022/12/12 01:08:44;;;;;;;27.63;16.02;;;1.30;99.90;;;;;;5068502;28;20033;-63
2022/12/12 01:11:11;;;;;;;30.58;17.05;;;1.30;99.90;;;;;;5064236;28;20076;-63
2022/12/12 01:13:37;;;;;;;32.05;16.67;;;1.30;99.90;;;;;;5063880;28;20116;-63
2022/12/12 01:16:04;;;;;;;29.83;16.33;;;1.30;99.90;;;;;;5082094;28;20056;-63
2022/12/12 01:18:30;;;;;;;32.92;16.90;;;1.30;99.90;;;;;;5058988;28;20072;-63
2022/12/12 01:20:55;;;;;;;31.20;17.05;;;1.30;99.90;;;;;;5063294;28;20048;-63
2022/12/12 01:23:21;;;;;;;35.45;18.45;;;1.20;99.90;;;;;;5066636;28;20091;-63
2022/12/12 01:25:47;;;;;;;32.10;16.85;;;1.20;99.90;;;;;;5066662;28;20048;-63
2022/12/12 01:28:13;;;;;;;31.77;16.92;;;1.20;99.90;;;;;;5078363;28;20040;-63
2022/12/12 01:30:39;;;;;;;33.30;17.35;;;1.10;99.90;;;;;;5082156;28;20405;-63
2022/12/12 01:33:05;;;;;;;33.17;17.25;;;1.10;99.90;;;;;;5078344;28;20060;-63
2022/12/12 01:35:32;;;;;;;31.50;17.38;;;1.20;99.90;;;;;;5081089;28;20042;-63
2022/12/12 01:37:58;;;;;;;29.55;16.67;;;1.20;99.90;;;;;;5059242;28;20037;-63
2022/12/12 01:40:27;;;;;;;31.02;16.77;;;1.20;99.90;;;;;;5061327;28;20041;-63
2022/12/12 01:42:54;;;;;;;32.33;17.98;;;1.20;99.90;;;;;;5059175;28;20049;-63
2022/12/12 01:45:57;;;;;;;33.60;18.20;;;1.20;99.90;;;;;;5065778;28;20078;-63
2022/12/12 01:48:32;;;;;;;31.50;17.10;;;1.10;99.90;;;;;;5064546;28;20041;-63
2022/12/12 01:51:01;;;;;;;33.42;17.77;;;1.10;99.90;;;;;;5061178;28;20044;-63
2022/12/12 01:53:28;;;;;;;30.63;17.23;;;1.00;99.90;;;;;;5060302;28;20052;-63
2022/12/12 01:55:56;;;;;;;30.58;17.13;;;1.10;99.90;;;;;;5079376;28;20078;-63
2022/12/12 01:58:22;;;;;;;32.20;17.40;;;1.00;99.90;;;;;;5060866;28;20051;-63
2022/12/12 02:00:48;;;;;;;32.28;15.80;;;1.00;99.90;;;;;;5078603;28;20473;-63
2022/12/12 02:03:14;;;;;;;36.63;17.98;;;1.10;99.90;;;;;;5067423;28;20052;-63
2022/12/12 02:05:49;;;;;;;32.70;17.77;;;1.10;99.90;;;;;;5081861;28;20100;-63
2022/12/12 02:08:18;;;;;;;33.22;18.27;;;1.10;99.90;;;;;;5078963;28;20397;-63
2022/12/12 02:10:44;;;;;;;33.83;17.67;;;1.10;99.90;;;;;;5060937;28;20041;-63
2022/12/12 02:13:14;;;;;;;33.83;17.17;;;1.10;99.90;;;;;;5060385;28;20522;-63
2022/12/12 02:15:43;;;;;;;;;;;1.10;99.90;;;;;;5059696;28;20037;-63
2022/12/12 02:18:21;;;;;;;32.80;18.27;;;1.20;99.90;;;;;;5068031;28;19921;-63
2022/12/12 02:21:11;;;;;;;30.20;16.63;;;1.20;99.90;;;;;;5050285;28;20076;-63
2022/12/12 02:24:12;;;;;;;33.58;17.42;;;1.20;99.90;;;;;;5069317;28;20049;-63
2022/12/12 02:26:52;;;;;;;29.13;16.02;;;1.20;99.90;;;;;;5021582;28;20045;-63
2022/12/12 02:30:05;;;;;;;29.42;16.63;;;1.20;99.90;;;;;;5005596;28;20062;-63
2022/12/12 02:32:54;;;;;;;31.33;16.60;;;1.30;99.90;;;;;;4988009;28;20054;-63
2022/12/12 02:35:40;;;;;;;27.60;14.40;;;1.20;99.90;;;;;;4987398;28;20050;-63
2022/12/12 02:38:28;;;;;;;29.30;16.02;;;1.20;99.90;;;;;;5022516;28;20046;-63
2022/12/12 02:41:21;;;;;;;29.35;15.77;;;1.20;99.90;;;;;;5022975;28;20181;-63
2022/12/12 02:44:01;;;;;;;27.10;15.27;;;1.20;99.90;;;;;;4996407;28;20053;-63
2022/12/12 02:46:40;;;;;;;30.73;17.20;;;1.20;99.90;;;;;;5005228;28;20073;-63
2022/12/12 02:49:12;;;;;;;30.45;16.65;;;1.20;99.90;;;;;;5021892;28;20118;-63
2022/12/12 02:51:39;;;;;;;30.83;16.48;;;1.30;99.90;;;;;;5005764;28;20082;-63
2022/12/12 02:54:12;;;;;;;29.63;15.65;;;1.20;99.90;;;;;;5033890;28;20075;-63
2022/12/12 02:56:44;;;;;;;29.73;16.48;;;1.20;99.90;;;;;;5005064;28;20061;-63
2022/12/12 02:59:19;;;;;;;27.13;15.05;;;1.20;99.90;;;;;;5004729;28;20054;-63
2022/12/12 03:01:59;;;;;;;26.38;14.70;;;1.20;99.90;;;;;;5014921;28;20067;-63
2022/12/12 03:08:08;;;;;;;26.80;14.90;;;1.20;99.90;;;;;;5046194;28;20083;-63
2022/12/12 03:10:41;;;;;;;26.02;14.02;;;1.20;99.90;;;;;;5065693;28;20044;-63
2022/12/12 03:13:23;;;;;;;30.52;16.30;;;1.30;99.90;;;;;;5065935;28;20479;-63
2022/12/12 03:16:05;;;;;;;26.27;14.55;;;1.20;99.90;;;;;;5082546;28;20052;-63
2022/12/12 03:18:50;;;;;;;24.45;14.02;;;1.30;99.90;;;;;;5084463;28;20044;-63
2022/12/12 03:21:35;;;;;;;27.73;15.10;;;1.30;99.90;;;;;;5053351;28;20083;-63
2022/12/12 03:24:33;;;;;;;25.80;13.82;;;1.20;99.90;;;;;;5058404;28;20047;-63
2022/12/12 03:27:45;;;;;;;25.20;14.02;;;1.20;99.90;;;;;;5080767;28;20120;-63
2022/12/12 03:30:15;;;;;;;28.10;15.30;;;1.20;99.90;;;;;;5009961;28;20054;-63
2022/12/12 03:32:45;;;;;;;25.80;14.00;;;1.30;99.90;;;;;;5038541;28;20064;-63
2022/12/12 03:35:41;;;;;;;24.27;13.65;;;1.30;99.90;;;;;;5025471;28;20081;-63
2022/12/12 03:38:28;;;;;;;23.30;13.10;;;1.30;99.90;;;;;;4998743;28;20066;-63
2022/12/12 03:41:00;;;;;;;22.48;13.32;;;1.40;99.90;;;;;;5007494;28;20054;-63
2022/12/12 03:43:39;;;;;;;25.90;14.68;;;1.30;99.90;;;;;;5024402;28;20073;-63
2022/12/12 03:46:13;;;;;;;28.20;15.93;;;1.30;99.90;;;;;;5025699;28;20049;-63
2022/12/12 03:49:00;;;;;;;26.52;14.93;;;1.30;99.90;;;;;;5015234;28;20050;-63
2022/12/12 03:51:31;;;;;;;27.20;15.55;;;1.30;99.90;;;;;;5024593;28;20058;-63
2022/12/12 03:54:28;;;;;;;28.52;15.80;;;1.30;99.90;;;;;;5007752;28;20100;-63
2022/12/12 03:57:08;;;;;;;29.95;16.70;;;1.30;99.90;;;;;;5020173;28;20132;-63
2022/12/12 03:59:52;;;;;;;27.45;15.57;;;1.30;99.90;;;;;;5016264;28;20087;-63
2022/12/12 04:02:38;;;;;;;30.10;15.25;;;1.30;99.90;;;;;;5021674;28;20046;-63
2022/12/12 04:05:29;;;;;;;29.58;15.75;;;1.30;99.90;;;;;;5058480;28;20069;-63
2022/12/12 04:08:10;;;;;;;27.77;15.10;;;1.30;99.90;;;;;;5080270;28;20070;-63
2022/12/12 04:13:58;;;;;;;29.05;16.23;;;1.20;99.90;;;;;;5068714;28;20051;-63
2022/12/12 04:16:34;;;;;;;28.55;15.20;;;1.20;99.90;;;;;;5062742;28;20048;-63
2022/12/12 04:19:09;;;;;;;25.60;14.63;;;1.30;99.90;;;;;;5055915;28;20093;-63
2022/12/12 04:24:35;;;;;;;;;;;1.30;99.90;;;;;;5063515;28;20095;-63
2022/12/12 04:27:07;;;;;;;28.52;15.15;;;1.30;99.90;;;;;;5063378;28;19924;-63
2022/12/12 04:29:53;;;;;;;24.85;15.15;;;1.30;99.90;;;;;;5065363;28;20060;-63
2022/12/12 04:32:27;;;;;;;26.65;15.13;;;1.30;99.90;;;;;;5077784;28;20443;-63
2022/12/12 04:35:05;;;;;;;28.30;15.32;;;1.30;99.90;;;;;;5060017;28;20057;-63
2022/12/12 04:37:56;;;;;;;24.75;14.95;;;1.20;99.90;;;;;;5056038;28;20104;-63
2022/12/12 04:40:35;;;;;;;27.80;15.15;;;1.30;99.90;;;;;;5056231;28;20056;-63
2022/12/12 04:43:19;;;;;;;25.00;14.88;;;1.30;99.90;;;;;;5069521;28;20052;-63
2022/12/12 04:45:59;;;;;;;26.95;14.32;;;1.30;99.90;;;;;;5075838;28;20088;-63
2022/12/12 04:48:35;;;;;;;27.77;15.50;;;1.30;99.90;;;;;;5048205;28;20041;-63
2022/12/12 04:51:03;;;;;;;25.50;15.77;;;1.30;99.90;;;;;;5049747;28;20071;-63
2022/12/12 04:53:36;;;;;;;26.38;16.52;;;1.30;99.90;;;;;;5051461;28;20049;-63
2022/12/12 04:56:08;;;;;;;24.48;14.60;;;1.20;99.90;;;;;;5067666;28;20527;-63
2022/12/12 04:58:35;;;;;;;27.13;15.45;;;1.20;99.90;;;;;;5073260;28;20432;-63
2022/12/12 05:01:12;;;;;;;27.52;14.50;;;1.20;99.90;;;;;;5051850;28;20048;-63
2022/12/12 05:03:52;;;;;;;26.00;14.93;;;1.20;99.90;;;;;;5068711;28;20040;-63
2022/12/12 05:06:29;;;;;;;23.90;14.20;;;1.10;99.90;;;;;;5049051;28;20081;-63
2022/12/12 05:08:57;;;;;;;24.73;14.18;;;1.10;99.90;;;;;;5062778;28;20075;-63
2022/12/12 05:11:23;;;;;;;23.85;13.48;;;1.10;99.90;;;;;;5065189;28;20037;-63
2022/12/12 05:13:49;;;;;;;25.73;14.15;;;1.10;99.90;;;;;;5084437;28;20051;-63
2022/12/12 05:16:31;;;;;;;25.38;13.55;;;1.10;99.90;;;;;;5057906;28;20048;-63
2022/12/12 05:19:00;;;;;;;24.15;14.50;;;1.10;99.90;;;;;;5077102;28;20094;-63
2022/12/12 05:21:26;;;;;;;25.88;14.68;;;1.10;99.90;;;;;;5054416;28;20128;-63
2022/12/12 05:23:52;;;;;;;26.60;13.57;;;0.90;99.90;;;;;;5073877;28;20040;-63
2022/12/12 05:26:22;;;;;;;26.15;15.27;;;1.00;99.90;;;;;;5071084;28;20110;-63
2022/12/12 05:28:48;;;;;;;25.13;15.07;;;1.00;99.90;;;;;;5050583;28;20041;-63
2022/12/12 05:31:14;;;;;;;25.83;15.18;;;1.00;99.90;;;;;;5062346;28;20050;-63
2022/12/12 05:33:40;;;;;;;24.73;14.77;;;1.10;99.90;;;;;;5036506;28;20317;-64
2022/12/12 05:36:06;;;;;;;24.35;14.48;;;1.10;99.90;;;;;;5053427;28;20049;-63
2022/12/12 05:38:32;;;;;;;24.30;14.73;;;1.10;99.90;;;;;;5063853;28;20297;-63
2022/12/12 05:40:58;;;;;;;24.80;14.38;;;1.10;99.90;;;;;;5079805;28;20040;-63
2022/12/12 05:43:24;;;;;;;24.00;14.45;;;1.20;99.90;;;;;;5056101;28;20071;-64
2022/12/12 05:45:50;;;;;;;24.73;13.88;;;1.10;99.90;;;;;;5075447;28;20066;-64
2022/12/12 05:48:16;;;;;;;23.25;14.52;;;1.10;99.90;;;;;;5057589;28;21183;-64
2022/12/12 05:50:42;;;;;;;25.27;13.30;;;1.10;99.90;;;;;;5060855;28;20040;-63
2022/12/12 05:53:08;;;;;;;25.15;13.80;;;1.10;99.90;;;;;;5080897;28;20080;-63
2022/12/12 05:55:34;;;;;;;24.88;14.65;;;1.20;99.90;;;;;;5057811;28;20059;-63
2022/12/12 05:58:00;;;;;;;24.17;13.52;;;1.20;99.90;;;;;;5081752;28;20055;-63
2022/12/12 06:00:25;;;;;;;25.70;13.48;;;1.20;99.90;;;;;;5065308;28;20044;-64
2022/12/12 06:02:51;;;;;;;25.83;13.63;;;1.20;99.90;;;;;;5062048;28;20073;-63
2022/12/12 06:05:17;;;;;;;25.27;13.65;;;1.30;99.90;;;;;;5079549;28;20047;-64
2022/12/12 06:07:42;;;;;;;25.75;14.07;;;1.20;99.90;;;;;;5059316;28;20040;-64
2022/12/12 06:10:08;;;;;;;26.20;14.50;;;1.20;99.90;;;;;;5058986;28;20045;-64
2022/12/12 06:12:34;;;;;;;24.88;14.10;;;1.20;99.90;;;;;;5075050;28;20087;-65
2022/12/12 06:15:00;;;;;;;23.67;13.82;;;1.20;99.90;;;;;;5067541;28;20053;-64
2022/12/12 06:17:25;;;;;;;26.25;14.50;;;1.20;99.90;;;;;;5063010;28;20040;-63
2022/12/12 06:19:51;;;;;;;24.85;14.10;;;1.20;99.90;;;;;;5078674;28;20401;-65
2022/12/12 06:22:17;;;;;;;26.15;13.90;;;1.20;99.90;;;;;;5079196;28;20060;-65
2022/12/12 06:24:43;;;;;;;25.60;13.75;;;1.20;99.90;;;;;;5059238;28;20045;-65
2022/12/12 06:27:09;;;;;;;22.85;12.85;;;1.20;99.90;;;;;;5063047;28;20104;-65
2022/12/12 06:29:34;;;;;;;24.90;14.25;;;1.30;99.90;;;;;;5080910;28;20036;-64
2022/12/12 06:32:00;;;;;;;23.35;13.88;;;1.20;99.90;;;;;;5066166;28;20072;-65
2022/12/12 06:34:26;;;;;;;27.10;13.38;;;1.20;99.90;;;;;;5066736;28;20051;-65
2022/12/12 06:36:52;;;;;;;23.10;13.60;;;1.20;99.90;;;;;;5084227;28;20232;-65
2022/12/12 06:39:18;;;;;;;23.65;13.05;;;1.20;99.90;;;;;;5062462;28;20408;-65
2022/12/12 06:41:43;;;;;;;23.17;13.10;;;1.20;99.90;;;;;;5061815;28;20084;-65
2022/12/12 06:44:09;;;;;;;24.52;14.13;;;1.20;99.90;;;;;;5068614;28;20048;-65
2022/12/12 06:46:35;;;;;;;23.38;14.27;;;1.20;99.90;;;;;;5078905;28;20127;-65
2022/12/12 06:49:05;;;;;;;23.80;13.93;;;1.20;99.90;;;;;;5059475;28;20051;-65
2022/12/12 06:51:32;;;;;;;24.77;13.52;;;1.20;99.90;;;;;;5081412;28;20106;-65
2022/12/12 06:53:58;;;;;;;24.10;13.75;;;1.10;99.90;;;;;;5059708;28;20056;-65
2022/12/12 06:56:25;;;;;;;21.15;13.05;;;1.30;99.90;;;;;;5061661;28;20063;-65
2022/12/12 06:58:51;;;;;;;23.27;13.57;;;1.20;99.90;;;;;;5066538;28;20496;-65
2022/12/12 07:01:19;;;;;;;23.65;14.20;;;1.30;99.90;;;;;;5066289;28;20080;-63
2022/12/12 07:03:45;;;;;;;25.73;13.35;;;1.20;99.90;;;;;;5077399;28;20049;-60
2022/12/12 07:06:11;;;;;;;24.63;15.02;;;1.20;99.90;;;;;;5017111;28;20044;-61
2022/12/12 07:08:37;;;;;;;23.77;13.80;;;1.20;99.90;;;;;;5041825;28;20084;-61
2022/12/12 07:11:11;;;;;;;24.98;14.18;;;1.20;99.90;;;;;;5051286;28;20099;-61
2022/12/12 07:13:36;;;;;;;26.05;14.95;;;1.20;99.90;;;;;;5078758;28;20037;-61
2022/12/12 07:16:02;;;;;;;23.10;12.90;;;1.20;99.90;;;;;;5050182;28;20587;-61
2022/12/12 07:18:28;;;;;;;22.52;13.88;;;1.20;99.90;;;;;;5040897;28;20036;-60
2022/12/12 07:20:54;;;;;;;22.83;14.02;;;1.20;99.90;;;;;;5043480;28;20060;-61
2022/12/12 07:23:20;;;;;;;23.50;13.85;;;1.20;99.90;;;;;;5053713;28;20040;-61
2022/12/12 07:25:45;;;;;;;25.33;13.90;;;1.10;99.90;;;;;;5048583;28;20049;-61
2022/12/12 07:28:12;;;;;;;23.10;13.55;;;1.10;99.90;;;;;;5058053;28;20072;-61
2022/12/12 07:30:40;;;;;;;22.20;13.60;;;1.10;99.90;;;;;;5072443;28;20068;-61
2022/12/12 07:33:06;;;;;;;22.25;12.95;;;1.00;99.90;;;;;;5054350;28;20053;-61
2022/12/12 07:35:33;;;;;;;21.10;13.27;;;0.90;99.90;;;;;;5046439;28;20063;-61
2022/12/12 07:37:59;;;;;;;24.85;13.95;;;0.80;99.90;;;;;;5047907;28;20053;-61
2022/12/12 07:40:25;;;;;;;21.98;13.48;;;0.70;99.90;;;;;;5055371;28;20076;-61
2022/12/12 07:42:50;;;;;;;22.45;14.48;;;0.60;99.90;;;;;;5039775;28;20049;-61
2022/12/12 07:45:17;;;;;;;22.40;13.68;;;0.60;99.90;;;;;;5053808;28;20041;-61
2022/12/12 07:47:42;;;;;;;21.65;12.77;;;0.50;99.90;;;;;;5054380;28;20044;-61
2022/12/12 07:50:09;;;;;;;23.67;13.77;;;0.50;99.90;;;;;;5041832;28;20128;-61
2022/12/12 07:52:34;;;;;;;23.25;14.07;;;0.50;99.90;;;;;;5049065;28;20049;-61
2022/12/12 07:55:01;;;;;;;22.65;13.30;;;0.50;99.90;;;;;;5031046;28;20033;-61
2022/12/12 07:57:27;;;;;;;22.30;13.10;;;0.60;99.90;;;;;;5043383;28;20515;-61
2022/12/12 07:59:53;;;;;;;24.83;14.50;;;0.50;99.90;;;;;;5055913;28;20510;-61
2022/12/12 08:02:19;;;;;;;24.17;14.07;;;0.60;99.90;;;;;;5039192;28;20064;-61
2022/12/12 08:04:45;;;;;;;27.30;15.98;;;0.60;99.90;;;;;;5046721;28;20528;-61
2022/12/12 08:07:10;;;;;;;28.88;15.75;;;0.60;99.90;;;;;;5049589;28;20073;-61
2022/12/12 08:09:36;;;;;;;27.75;15.90;;;0.70;99.90;;;;;;5053063;28;20080;-61
2022/12/12 08:12:02;;;;;;;27.38;16.02;;;0.70;99.90;;;;;;5016875;28;20789;-61
2022/12/12 08:14:28;;;;;;;27.27;15.40;;;0.80;99.90;;;;;;5079840;28;20044;-61
2022/12/12 08:16:54;;;;;;;30.08;16.80;;;0.80;99.90;;;;;;5037030;28;20140;-62
2022/12/12 08:19:19;;;;;;;28.15;16.45;;;0.80;99.90;;;;;;5063542;28;20048;-61
2022/12/12 08:21:45;;;;;;;27.08;16.15;;;0.80;99.90;;;;;;5045960;28;20057;-63
2022/12/12 08:24:14;;;;;;;30.23;17.55;;;0.60;99.90;;;;;;5044830;28;20045;-64
2022/12/12 08:26:40;;;;;;;25.90;14.98;;;0.60;99.90;;;;;;5034704;28;20053;-64
2022/12/12 08:29:05;;;;;;;27.73;15.25;;;0.50;99.90;;;;;;5058115;28;20129;-65
2022/12/12 08:31:32;;;;;;;29.75;15.55;;;0.40;99.90;;;;;;5046076;28;20053;-64
2022/12/12 08:33:59;;;;;;;28.40;15.95;;;0.30;99.90;;;;;;5070589;28;20406;-65
2022/12/12 08:36:30;;;;;;;29.58;16.85;;;0.40;99.90;;;;;;5034959;28;20054;-65
2022/12/12 08:38:57;;;;;;;27.13;16.48;;;0.30;99.90;;;;;;5060733;28;20055;-65
2022/12/12 08:41:24;;;;;;;27.50;15.90;;;0.30;99.90;;;;;;5061082;28;20049;-64
2022/12/12 08:43:50;;;;;;;28.20;17.13;;;0.30;99.90;;;;;;5061036;28;20044;-65
2022/12/12 08:46:20;;;;;;;28.20;17.05;;;0.30;99.90;;;;;;5047763;28;20076;-64
2022/12/12 08:48:46;;;;;;;31.00;17.42;;;0.30;99.90;;;;;;5069302;28;20109;-64
2022/12/12 08:51:13;;;;;;;28.65;17.35;;;0.30;99.90;;;;;;5044729;28;20132;-64
2022/12/12 08:53:39;;;;;;;30.27;17.67;;;0.40;99.90;;;;;;5059949;28;20100;-64
2022/12/12 08:56:05;;;;;;;30.35;18.33;;;0.40;99.90;;;;;;5066972;28;20499;-64
2022/12/12 08:58:31;;;;;;;36.22;19.15;;;0.40;99.90;;;;;;5077452;28;20036;-64
2022/12/12 09:00:57;;;;;;;35.90;20.00;;;0.40;99.90;;;;;;5046003;28;20513;-65
2022/12/12 09:03:22;;;;;;;32.53;18.95;;;0.40;99.90;;;;;;5059643;28;20048;-64
2022/12/12 09:05:48;;;;;;;35.05;18.23;;;0.50;99.90;;;;;;5061792;28;20377;-65
2022/12/12 09:08:14;;;;;;;36.10;19.88;;;0.50;99.90;;;;;;5045114;28;20135;-65
2022/12/12 09:10:41;;;;;;;29.85;17.83;;;0.50;99.90;;;;;;5062107;28;20045;-65
2022/12/12 09:13:07;;;;;;;30.75;17.95;;;0.60;99.90;;;;;;5045095;28;20044;-64
2022/12/12 09:15:34;;;;;;;34.47;19.35;;;0.60;99.90;;;;;;5049152;28;20055;-65
2022/12/12 09:18:00;;;;;;;34.53;18.85;;;0.60;99.90;;;;;;5057416;28;20536;-64
2022/12/12 09:20:26;;;;;;;37.92;19.35;;;0.70;99.90;;;;;;5046678;28;20063;-65
2022/12/12 09:22:51;;;;;;;34.40;18.65;;;0.60;99.90;;;;;;5076434;28;20060;-64
2022/12/12 09:25:18;;;;;;;34.17;18.27;;;0.70;99.90;;;;;;5058154;28;20042;-64
2022/12/12 09:27:45;;;;;;;35.65;19.27;;;0.70;99.90;;;;;;5048500;28;20102;-65
2022/12/12 09:30:11;;;;;;;34.95;19.05;;;0.60;99.90;;;;;;5073667;28;20110;-64
2022/12/12 09:32:37;;;;;;;35.00;20.92;;;0.60;99.90;;;;;;5046975;28;20048;-65
2022/12/12 09:35:03;;;;;;;37.25;19.88;;;0.70;99.90;;;;;;5044971;28;20064;-64
2022/12/12 09:37:28;;;;;;;37.33;20.20;;;0.70;99.90;;;;;;5048762;28;20265;-64
2022/12/12 09:39:54;;;;;;;36.75;19.95;;;0.90;99.90;;;;;;5057284;28;20131;-65
2022/12/12 09:42:23;;;;;;;36.20;20.63;;;0.90;99.90;;;;;;5029271;28;20044;-65
2022/12/12 09:44:52;;;;;;;39.78;21.98;;;0.90;99.90;;;;;;5072781;28;20383;-64
2022/12/12 09:47:41;;;;;;;37.15;20.08;;;1.00;99.90;;;;;;5046781;28;20123;-65
2022/12/12 09:50:29;;;;;;;36.20;20.05;;;1.00;99.90;;;;;;5077636;28;20106;-64
2022/12/12 09:52:59;;;;;;;38.35;21.27;;;1.10;99.90;;;;;;5051885;28;20045;-64
2022/12/12 09:55:54;;;;;;;39.13;21.55;;;1.20;99.90;;;;;;5059847;28;20110;-64
2022/12/12 09:58:25;;;;;;;40.72;22.42;;;1.10;99.90;;;;;;5046108;28;20041;-64
2022/12/12 10:01:22;;;;;;;36.75;22.05;;;1.20;99.90;;;;;;5042256;28;20537;-64
2022/12/12 10:04:11;;;;;;;44.20;23.02;;;1.20;99.90;;;;;;5048642;28;20283;-65
2022/12/12 10:06:56;;;;;;;37.22;20.75;;;1.20;99.90;;;;;;5039196;28;20527;-64
2022/12/12 10:09:37;;;;;;;42.13;21.65;;;1.30;99.90;;;;;;5051675;28;20044;-64
2022/12/12 10:12:06;;;;;;;39.92;22.95;;;1.20;99.90;;;;;;5035860;28;20060;-64
2022/12/12 10:14:52;;;;;;;40.88;21.55;;;1.30;99.90;;;;;;5053555;28;20033;-64
2022/12/12 10:17:24;;;;;;;44.70;23.52;;;1.40;99.90;;;;;;5044512;28;20091;-64
2022/12/12 10:20:19;;;;;;;41.95;22.25;;;1.40;99.90;;;;;;5057506;28;20455;-64
2022/12/12 10:23:10;;;;;;;37.80;21.60;;;1.40;99.90;;;;;;5035892;28;20118;-64
2022/12/12 10:25:52;;;;;;;38.03;20.92;;;1.50;99.90;;;;;;5053026;28;20048;-64
2022/12/12 10:28:24;;;;;;;41.55;21.98;;;1.50;99.90;;;;;;5030463;28;20144;-64
2022/12/12 10:31:02;;;;;;;42.63;21.35;;;1.50;99.90;;;;;;5035187;28;20103;-64
2022/12/12 10:33:53;;;;;;;42.60;23.13;;;1.50;99.90;;;;;;5050521;28;20053;-64
2022/12/12 10:36:35;;;;;;;39.95;21.30;;;1.60;99.90;;;;;;5035073;28;20141;-64
2022/12/12 10:39:20;;;;;;;45.47;23.55;;;1.70;99.90;;;;;;5045278;28;20651;-66
2022/12/12 10:41:51;;;;;;;42.53;23.02;;;1.60;99.90;;;;;;5028135;28;20053;-65
2022/12/12 10:44:45;;;;;;;40.53;23.23;;;1.60;99.90;;;;;;5039115;28;20053;-64
2022/12/12 10:47:11;;;;;;;42.97;22.38;;;1.70;99.90;;;;;;5040424;28;20112;-64
2022/12/12 10:49:39;;;;;;;40.83;22.20;;;1.70;99.90;;;;;;5035828;28;21620;-64
2022/12/12 10:52:15;;;;;;;39.55;21.45;;;1.70;99.90;;;;;;5026004;28;20087;-64
2022/12/12 10:54:59;;;;;;;41.70;23.08;;;1.80;99.90;;;;;;5037350;28;20414;-65
2022/12/12 10:57:28;;;;;;;41.75;21.88;;;1.80;99.90;;;;;;5044848;28;20052;-64
2022/12/12 10:59:57;;;;;;;40.50;21.95;;;1.90;99.90;;;;;;5034851;28;20068;-65
2022/12/12 11:02:33;;;;;;;40.83;22.30;;;1.90;99.90;;;;;;5027968;28;20068;-65
2022/12/12 11:05:07;;;;;;;43.55;23.05;;;1.90;99.90;;;;;;5033513;28;20047;-64
2022/12/12 11:07:41;;;;;;;41.78;24.10;;;2.00;99.90;;;;;;5028717;28;20048;-64
2022/12/12 11:10:28;;;;;;;42.88;23.55;;;2.00;99.90;;;;;;5029215;28;20064;-65
2022/12/12 11:12:56;;;;;;;46.47;23.52;;;2.00;99.90;;;;;;5027870;28;20053;-64
2022/12/12 11:15:49;;;;;;;45.25;24.85;;;1.90;99.90;;;;;;5066008;28;20037;-65
2022/12/12 11:18:20;;;;;;;42.13;23.60;;;2.00;99.90;;;;;;5025817;28;20060;-65
2022/12/12 11:21:08;;;;;;;39.72;22.27;;;2.00;99.90;;;;;;5034719;28;20057;-65
2022/12/12 11:23:38;;;;;;;41.35;22.48;;;2.10;99.90;;;;;;5038436;28;20056;-64
2022/12/12 11:26:14;;;;;;;41.60;23.35;;;2.10;99.90;;;;;;5043611;28;20048;-64
2022/12/12 11:28:42;;;;;;;46.10;22.60;;;2.10;99.90;;;;;;5051898;28;20036;-64
2022/12/12 11:31:13;;;;;;;43.13;25.15;;;2.20;99.90;;;;;;5027620;28;20149;-64
2022/12/12 11:33:52;;;;;;;44.47;23.85;;;2.30;99.90;;;;;;5054478;28;20053;-64
2022/12/12 11:36:22;;;;;;;45.00;24.27;;;2.20;99.90;;;;;;5030440;28;20060;-64
2022/12/12 11:38:54;;;;;;;46.90;23.77;;;2.30;99.90;;;;;;5056073;28;20063;-64
2022/12/12 11:41:19;;;;;;;48.15;23.65;;;2.30;99.90;;;;;;5045249;28;20052;-64
2022/12/12 11:43:48;;;;;;;41.55;22.40;;;2.20;99.90;;;;;;5055343;28;20082;-64
2022/12/12 11:46:13;;;;;;;44.78;25.17;;;2.30;99.90;;;;;;5049504;28;20078;-64
2022/12/12 11:48:41;;;;;;;46.33;26.20;;;2.30;99.90;;;;;;5061372;28;20036;-64
2022/12/12 11:51:07;;;;;;;44.63;24.20;;;2.30;99.90;;;;;;5049612;28;20056;-64
2022/12/12 11:53:39;;;;;;;37.28;22.05;;;2.30;99.90;;;;;;5056088;28;20508;-64
2022/12/12 11:56:53;;;;;;;41.90;22.83;;;2.30;99.90;;;;;;5061158;28;20052;-65
2022/12/12 11:59:33;;;;;;;41.67;23.50;;;2.40;99.90;;;;;;4992317;28;20053;-64
2022/12/12 12:02:22;;;;;;;40.75;22.52;;;2.40;99.90;;;;;;4986897;28;20066;-64
2022/12/12 12:05:27;;;;;;;36.90;20.27;;;2.40;99.90;;;;;;5012283;28;20046;-64
2022/12/12 12:08:14;;;;;;;38.55;21.67;;;2.40;99.90;;;;;;4948300;28;20363;-64
2022/12/12 12:11:04;;;;;;;35.75;20.85;;;2.50;99.90;;;;;;4958478;29;20055;-64
2022/12/12 12:13:48;;;;;;;;;;;2.50;99.90;;;;;;4934017;29;20582;-64
2022/12/12 12:16:40;;;;;;;37.85;21.83;;;2.60;99.90;;;;;;4931767;29;20020;-65
2022/12/12 12:19:17;;;;;;;38.20;21.67;;;2.60;99.90;;;;;;4941533;29;20063;-67
2022/12/12 12:21:58;;;;;;;36.15;21.17;;;2.60;99.90;;;;;;4934506;28;20041;-65
2022/12/12 12:24:33;;;;;;;35.55;19.40;;;2.60;99.90;;;;;;4946685;29;20044;-66
2022/12/12 12:27:42;;;;;;;33.95;18.90;;;2.60;99.90;;;;;;4951331;29;20065;-68
2022/12/12 12:30:39;;;;;;;34.10;19.25;;;2.60;99.90;;;;;;4951924;28;20432;-65
2022/12/12 12:33:24;;;;;;;32.33;19.50;;;2.60;99.90;;;;;;4986386;28;20084;-65
2022/12/12 12:36:32;;;;;;;31.05;17.05;;;2.70;99.90;;;;;;4986030;28;20201;-65
2022/12/12 12:39:28;;;;;;;27.35;17.35;;;2.70;99.90;;;;;;4973895;28;20777;-65
2022/12/12 12:42:25;;;;;;;29.73;17.85;;;2.70;99.90;;;;;;4997205;28;20091;-65
2022/12/12 12:44:54;;;;;;;29.77;16.83;;;2.70;99.90;;;;;;5050907;28;20079;-65
2022/12/12 12:47:52;;;;;;;27.75;16.15;;;2.80;99.90;;;;;;5041047;28;20049;-65
2022/12/12 12:50:27;;;;;;;32.30;18.73;;;2.80;99.90;;;;;;5070526;28;20595;-65
2022/12/12 12:53:02;;;;;;;30.20;17.25;;;2.90;99.90;;;;;;5034397;28;20568;-65
2022/12/12 12:55:39;;;;;;;29.35;17.25;;;2.80;99.90;;;;;;5059765;28;20040;-65
2022/12/12 12:58:11;;;;;;;26.45;15.57;;;2.80;99.90;;;;;;5029981;28;20473;-65
2022/12/12 13:00:37;;;;;;;25.73;16.20;;;2.80;99.90;;;;;;5064779;28;20051;-65
2022/12/12 13:03:21;;;;;;;26.65;17.40;;;2.80;99.90;;;;;;5031377;28;20053;-65
2022/12/12 13:05:53;;;;;;;29.83;16.83;;;2.80;99.90;;;;;;5050747;28;20067;-65
2022/12/12 13:08:48;;;;;;;24.30;15.65;;;2.80;99.90;;;;;;5059108;28;20047;-65
2022/12/12 13:11:20;;;;;;;26.60;15.07;;;2.90;99.90;;;;;;5048672;28;20063;-65
2022/12/12 13:13:47;;;;;;;28.23;15.60;;;2.90;99.90;;;;;;5045601;28;20087;-65
2022/12/12 13:16:17;;;;;;;24.35;15.02;;;2.90;99.90;;;;;;5048317;28;20496;-65